Time;durP1;ratioP1;P1;durP2;ratioP2;P2;SDS_P1;SDS_P2;PMS_P1;PMS_P2;Temp;Humidity;BMP_temperature;BMP_pressure;BME280_temperature;BME280_humidity;BME280_pressure;Samples;Min_cycle;Max_cycle;Signal;HPM_P1;HPM_P2
2021/10/17 00:00:24;;;;;;;62.27;23.20;;;;;;;-145.69;100.00;72353.66;5096340;28;20202;-78
2021/10/17 00:02:51;;;;;;;67.63;24.33;;;;;;;-145.69;100.00;72343.72;5096101;28;20560;-77
2021/10/17 00:05:19;;;;;;;55.87;23.57;;;;;;;-145.69;100.00;72337.75;5095960;28;20263;-77
2021/10/17 00:07:46;;;;;;;61.43;23.13;;;;;;;-145.69;100.00;72331.78;5095337;28;20206;-77
2021/10/17 00:10:15;;;;;;;63.00;23.90;;;;;;;-145.69;100.00;72337.75;5096024;28;20209;-77
2021/10/17 00:12:43;;;;;;;57.23;20.80;;;;;;;-145.69;100.00;72349.69;5095758;28;20202;-77
2021/10/17 00:15:13;;;;;;;44.43;20.97;;;;;;;-145.69;100.00;72341.72;5093734;28;20222;-77
2021/10/17 00:17:40;;;;;;;50.80;20.90;;;;;;;-145.69;100.00;72345.69;5095571;28;20198;-77
2021/10/17 00:20:09;;;;;;;46.97;19.93;;;;;;;-145.69;100.00;72349.69;5095754;28;20464;-77
2021/10/17 00:22:36;;;;;;;45.10;19.37;;;;;;;-145.69;100.00;72351.66;5095734;28;20194;-77
2021/10/17 00:25:03;;;;;;;48.03;19.77;;;;;;;-145.69;100.00;72357.66;5095505;28;20672;-77
2021/10/17 00:27:30;;;;;;;47.50;19.97;;;;;;;-145.69;100.00;72357.66;5095655;28;20382;-77
2021/10/17 00:29:58;;;;;;;42.03;17.73;;;;;;;-145.69;100.00;72365.59;5095606;28;20562;-78
2021/10/17 00:32:24;;;;;;;43.33;18.87;;;;;;;-145.69;100.00;72367.59;5095389;28;20251;-77
2021/10/17 00:34:51;;;;;;;44.20;19.07;;;;;;;-145.69;100.00;72369.59;5095089;28;20226;-78
2021/10/17 00:37:18;;;;;;;42.50;19.97;;;;;;;-145.69;100.00;72373.56;5095289;28;20198;-77
2021/10/17 00:39:44;;;;;;;42.03;19.73;;;;;;;-145.69;100.00;72371.56;5095437;28;20271;-78
2021/10/17 00:42:14;;;;;;;46.40;19.40;;;;;;;-145.69;100.00;72363.63;5095225;28;20194;-77
2021/10/17 00:44:41;;;;;;;43.10;18.97;;;;;;;-145.69;100.00;72375.56;5094899;28;20194;-78
2021/10/17 00:47:09;;;;;;;39.50;17.17;;;;;;;-145.69;100.00;72385.50;5095197;28;20230;-78
2021/10/17 00:49:36;;;;;;;42.57;17.33;;;;;;;-145.69;100.00;72397.44;5095218;28;20194;-78
2021/10/17 00:52:04;;;;;;;45.23;18.73;;;;;;;-145.69;100.00;72393.47;5095259;28;20573;-78
2021/10/17 00:54:31;;;;;;;49.33;19.40;;;;;;;-145.69;100.00;72397.44;5095241;28;20201;-77
2021/10/17 00:56:57;;;;;;;40.87;18.73;;;;;;;-145.69;100.00;72403.41;5094924;28;20671;-78
2021/10/17 00:59:24;;;;;;;41.67;18.57;;;;;;;-145.69;100.00;72421.34;5082056;28;20195;-77
2021/10/17 01:01:50;;;;;;;44.37;18.63;;;;;;;-145.69;100.00;72425.31;5074645;28;20205;-77
2021/10/17 01:04:18;;;;;;;47.70;18.73;;;;;;;-145.69;100.00;72451.19;5074659;28;20199;-78
2021/10/17 01:06:47;;;;;;;51.07;19.30;;;;;;;-145.69;100.00;72455.16;5074756;28;20257;-77
2021/10/17 01:09:13;;;;;;;42.17;18.67;;;;;;;-145.69;100.00;72473.09;5074949;28;20198;-77
2021/10/17 01:11:41;;;;;;;49.53;19.20;;;;;;;-145.69;100.00;72481.03;5074671;28;20203;-77
2021/10/17 01:14:09;;;;;;;52.87;19.77;;;;;;;-145.69;100.00;72491.00;5074388;28;20657;-78
2021/10/17 01:16:39;;;;;;;46.93;19.47;;;;;;;-145.69;100.00;72510.91;5074255;28;20561;-76
2021/10/17 01:19:05;;;;;;;55.80;20.70;;;;;;;-145.69;100.00;72500.94;5074543;28;20297;-77
2021/10/17 01:21:34;;;;;;;55.40;21.03;;;;;;;-145.69;100.00;72494.97;5074310;28;20203;-77
2021/10/17 01:24:00;;;;;;;58.57;21.37;;;;;;;-145.69;100.00;72496.97;5074183;28;20199;-77
2021/10/17 01:26:27;;;;;;;72.70;27.77;;;;;;;-145.69;100.00;72491.00;5073597;28;20973;-77
2021/10/17 01:28:53;;;;;;;67.27;23.87;;;;;;;-145.69;100.00;72493.00;5074035;28;20620;-77
2021/10/17 01:31:20;;;;;;;77.17;24.57;;;;;;;-145.69;100.00;72479.06;5074072;28;20202;-77
2021/10/17 01:33:46;;;;;;;81.00;26.17;;;;;;;-145.69;100.00;72481.03;5073926;28;20272;-77
2021/10/17 01:36:13;;;;;;;73.97;24.10;;;;;;;-145.69;100.00;72504.94;5073851;28;20651;-76
2021/10/17 01:38:40;;;;;;;64.57;21.97;;;;;;;-145.69;100.00;72512.91;5074058;28;20202;-77
2021/10/17 01:41:07;;;;;;;61.50;21.43;;;;;;;-145.69;100.00;72518.88;5073970;28;20206;-77
2021/10/17 01:43:33;;;;;;;73.43;22.50;;;;;;;-145.69;100.00;72522.84;5073829;28;20673;-77
2021/10/17 01:46:00;;;;;;;72.90;23.47;;;;;;;-145.69;100.00;72528.81;5073760;28;20222;-77
2021/10/17 01:48:28;;;;;;;69.57;23.03;;;;;;;-145.69;100.00;72532.78;5073886;28;20234;-77
2021/10/17 01:50:54;;;;;;;83.20;25.13;;;;;;;-145.69;100.00;72524.84;5073772;28;20203;-77
2021/10/17 01:53:21;;;;;;;69.73;23.47;;;;;;;-145.69;100.00;72524.84;5073913;28;20206;-77
2021/10/17 01:55:49;;;;;;;89.73;27.23;;;;;;;-145.69;100.00;72506.91;5073239;28;20207;-77
2021/10/17 01:58:15;;;;;;;75.57;25.30;;;;;;;-145.69;100.00;72524.84;5073236;28;20199;-77
2021/10/17 02:00:42;;;;;;;83.23;24.67;;;;;;;-145.69;100.00;72528.81;5073671;28;20210;-77
2021/10/17 02:03:09;;;;;;;77.60;24.03;;;;;;;-145.69;100.00;72528.81;5073803;28;20234;-77
2021/10/17 02:05:35;;;;;;;83.80;24.30;;;;;;;-145.69;100.00;72532.78;5073528;28;20199;-76
2021/10/17 02:08:01;;;;;;;77.53;24.83;;;;;;;-145.69;100.00;72524.84;5073533;28;20233;-77
2021/10/17 02:10:28;;;;;;;91.87;26.90;;;;;;;-145.69;100.00;72514.88;5073258;28;20233;-76
2021/10/17 02:12:56;;;;;;;79.90;25.87;;;;;;;-145.69;100.00;72536.78;5073243;28;20224;-76
2021/10/17 02:15:22;;;;;;;73.63;25.30;;;;;;;-145.69;100.00;72534.78;5073295;28;20654;-77
2021/10/17 02:17:49;;;;;;;68.83;22.83;;;;;;;-145.69;100.00;72536.78;5073368;28;20256;-77
2021/10/17 02:20:15;;;;;;;84.67;26.97;;;;;;;-145.69;100.00;72532.78;5073506;28;20206;-77
2021/10/17 02:22:42;;;;;;;95.53;26.73;;;;;;;-145.69;100.00;72532.78;5073070;28;20687;-77
2021/10/17 02:25:09;;;;;;;78.97;26.83;;;;;;;-145.69;100.00;72544.75;5073179;28;20201;-77
2021/10/17 02:27:35;;;;;;;86.47;30.17;;;;;;;-145.69;100.00;72558.66;5072195;28;20469;-77
2021/10/17 02:30:04;;;;;;;83.43;24.73;;;;;;;-145.69;100.00;72562.66;5073400;28;20198;-77
2021/10/17 02:32:30;;;;;;;70.43;23.30;;;;;;;-145.69;100.00;72566.63;5073278;28;20209;-77
2021/10/17 02:34:57;;;;;;;67.13;22.87;;;;;;;-145.69;100.00;72568.63;5073023;28;20233;-76
2021/10/17 02:37:23;;;;;;;89.73;25.33;;;;;;;-145.69;100.00;72546.72;5073089;28;20207;-77
2021/10/17 02:39:50;;;;;;;79.03;24.50;;;;;;;-145.69;100.00;72554.69;5073080;28;20195;-76
2021/10/17 02:42:16;;;;;;;78.10;24.27;;;;;;;-145.69;100.00;72560.66;5073102;28;20206;-78
2021/10/17 02:44:42;;;;;;;92.00;26.53;;;;;;;-145.69;100.00;72560.66;5073073;28;20248;-77
2021/10/17 02:47:10;;;;;;;77.77;25.53;;;;;;;-145.69;100.00;72564.66;5072812;28;20721;-77
2021/10/17 02:49:37;;;;;;;87.43;26.73;;;;;;;-145.69;100.00;72556.69;5073026;28;20199;-77
2021/10/17 02:52:04;;;;;;;101.07;27.17;;;;;;;-145.69;100.00;72550.72;5072935;28;20203;-77
2021/10/17 02:54:30;;;;;;;88.10;26.97;;;;;;;-145.69;100.00;72556.69;5072693;28;20195;-77
2021/10/17 02:56:57;;;;;;;93.17;26.40;;;;;;;-145.69;100.00;72548.72;5072750;28;20668;-77
2021/10/17 02:59:23;;;;;;;94.43;28.63;;;;;;;-145.69;100.00;72552.69;5073118;28;20561;-76
2021/10/17 03:01:50;;;;;;;103.77;28.67;;;;;;;-145.69;100.00;72546.72;5072981;28;20199;-76
2021/10/17 03:04:18;;;;;;;86.50;27.50;;;;;;;-145.69;100.00;72556.69;5072974;28;20608;-76
2021/10/17 03:06:45;;;;;;;96.23;26.90;;;;;;;-145.69;100.00;72548.72;5072707;28;20313;-77
2021/10/17 03:09:11;;;;;;;75.90;24.47;;;;;;;-145.69;100.00;72554.69;5079063;28;20203;-77
2021/10/17 03:11:38;;;;;;;83.27;27.03;;;;;;;-145.69;100.00;72554.69;5076962;28;20228;-78
2021/10/17 03:14:05;;;;;;;81.77;25.53;;;;;;;-145.69;100.00;72558.66;5076797;28;20573;-77
2021/10/17 03:16:32;;;;;;;94.43;27.07;;;;;;;-145.69;100.00;72546.72;5076810;28;20206;-76
2021/10/17 03:18:58;;;;;;;88.40;26.40;;;;;;;-145.69;100.00;72548.72;5076915;28;20199;-76
2021/10/17 03:21:27;;;;;;;76.63;25.50;;;;;;;-145.69;100.00;72558.66;5076463;28;20202;-76
2021/10/17 03:23:53;;;;;;;79.23;25.17;;;;;;;-145.69;100.00;72552.69;5076737;28;20310;-77
2021/10/17 03:26:21;;;;;;;90.93;27.67;;;;;;;-145.69;100.00;72552.69;5076554;28;20202;-77
2021/10/17 03:28:48;;;;;;;85.07;26.87;;;;;;;-145.69;100.00;72548.72;5076672;28;20657;-76
2021/10/17 03:31:20;;;;;;;86.03;27.63;;;;;;;-145.69;100.00;72546.72;5076476;28;20203;-77
2021/10/17 03:33:46;;;;;;;86.07;27.37;;;;;;;-145.69;100.00;72560.66;5076150;28;20238;-77
2021/10/17 03:36:13;;;;;;;87.97;27.37;;;;;;;-145.69;100.00;72552.69;5076337;28;20665;-77
2021/10/17 03:38:44;;;;;;;81.70;27.23;;;;;;;-145.69;100.00;72536.78;5075979;28;20559;-77
2021/10/17 03:41:13;;;;;;;90.37;29.00;;;;;;;-145.69;100.00;72542.75;5076299;28;20203;-77
2021/10/17 03:43:40;;;;;;;79.57;25.73;;;;;;;-145.69;100.00;72556.69;5076350;28;20199;-77
2021/10/17 03:46:06;;;;;;;79.50;23.83;;;;;;;-145.69;100.00;72570.63;5076076;28;20202;-76
2021/10/17 03:48:33;;;;;;;75.17;24.47;;;;;;;-145.69;100.00;72572.59;5075914;28;20234;-77
2021/10/17 03:50:59;;;;;;;78.20;25.27;;;;;;;-145.69;100.00;72574.59;5075960;28;20706;-77
2021/10/17 03:53:26;;;;;;;73.57;24.63;;;;;;;-145.69;100.00;72568.63;5076353;28;20198;-77
2021/10/17 03:55:53;;;;;;;79.47;24.63;;;;;;;-145.69;100.00;72574.59;5076123;28;20198;-77
2021/10/17 03:58:20;;;;;;;81.03;25.37;;;;;;;-145.69;100.00;72574.59;5076000;28;20601;-77
2021/10/17 04:00:46;;;;;;;79.03;24.63;;;;;;;-145.69;100.00;72584.56;5075844;28;20205;-77
2021/10/17 04:03:13;;;;;;;86.33;25.23;;;;;;;-145.69;100.00;72594.50;5075717;28;20202;-77
2021/10/17 04:05:39;;;;;;;66.97;23.53;;;;;;;-145.69;100.00;72604.44;5075706;28;20199;-77
2021/10/17 04:08:07;;;;;;;84.23;24.40;;;;;;;-145.69;100.00;72608.44;5075523;28;20709;-77
2021/10/17 04:10:34;;;;;;;75.67;23.93;;;;;;;-145.69;100.00;72620.38;5075804;28;20305;-77
2021/10/17 04:13:02;;;;;;;85.23;24.57;;;;;;;-145.69;100.00;72610.44;5075577;28;20202;-76
2021/10/17 04:15:28;;;;;;;75.07;23.27;;;;;;;-145.69;100.00;72622.38;5075568;28;20240;-77
2021/10/17 04:17:55;;;;;;;103.63;28.33;;;;;;;-145.69;100.00;72604.44;5075317;28;20199;-77
2021/10/17 04:20:21;;;;;;;90.90;27.70;;;;;;;-145.69;100.00;72596.50;5074852;28;20198;-77
2021/10/17 04:22:47;;;;;;;96.40;26.40;;;;;;;-145.69;100.00;72600.47;5075394;28;20684;-77
2021/10/17 04:25:14;;;;;;;80.17;24.77;;;;;;;-145.69;100.00;72606.44;5075802;28;20210;-77
2021/10/17 04:27:40;;;;;;;115.23;32.97;;;;;;;-145.69;100.00;72610.44;5074931;28;20890;-77
2021/10/17 04:30:09;;;;;;;97.60;26.60;;;;;;;-145.69;100.00;72612.41;5075244;28;20202;-77
2021/10/17 04:32:35;;;;;;;102.37;29.13;;;;;;;-145.69;100.00;72602.47;5075026;28;20213;-77
2021/10/17 04:35:02;;;;;;;112.00;26.87;;;;;;;-145.69;100.00;72594.50;5075136;28;20230;-76
2021/10/17 04:37:29;;;;;;;99.87;27.63;;;;;;;-145.69;100.00;72584.56;5075176;28;20207;-77
2021/10/17 04:39:56;;;;;;;117.43;27.37;;;;;;;-145.69;100.00;72592.50;5075207;28;20202;-76
2021/10/17 04:42:22;;;;;;;110.87;27.57;;;;;;;-145.69;100.00;72580.56;5075156;28;20233;-77
2021/10/17 04:44:49;;;;;;;105.07;29.50;;;;;;;-145.69;100.00;72574.59;5075041;28;20199;-77
2021/10/17 04:47:17;;;;;;;100.40;27.70;;;;;;;-145.69;100.00;72590.53;5074805;28;20221;-77
2021/10/17 04:49:43;;;;;;;100.10;28.60;;;;;;;-145.69;100.00;72584.56;5075113;28;20195;-77
2021/10/17 04:52:10;;;;;;;97.53;27.67;;;;;;;-145.69;100.00;72598.47;5075046;28;20202;-76
2021/10/17 04:54:36;;;;;;;84.43;25.87;;;;;;;-145.69;100.00;72592.50;5075075;28;20202;-76
2021/10/17 04:57:03;;;;;;;89.50;26.83;;;;;;;-145.69;100.00;72602.47;5074617;28;20199;-77
2021/10/17 04:59:29;;;;;;;88.93;25.87;;;;;;;-145.69;100.00;72608.44;5074455;28;20198;-77
2021/10/17 05:01:56;;;;;;;97.93;25.40;;;;;;;-145.69;100.00;72608.44;5075708;28;20194;-77
2021/10/17 05:04:23;;;;;;;91.13;26.27;;;;;;;-145.69;100.00;72612.41;5093014;28;20244;-77
2021/10/17 05:06:50;;;;;;;78.80;24.60;;;;;;;-145.69;100.00;72616.41;5094903;28;20214;-78
2021/10/17 05:09:16;;;;;;;76.33;24.67;;;;;;;-145.69;100.00;72626.34;5094914;28;20198;-77
2021/10/17 05:11:43;;;;;;;83.77;24.03;;;;;;;-145.69;100.00;72620.38;5094792;28;20194;-76
2021/10/17 05:14:09;;;;;;;93.77;25.80;;;;;;;-145.69;100.00;72616.41;5094625;28;20228;-76
2021/10/17 05:16:36;;;;;;;91.60;26.53;;;;;;;-145.69;100.00;72612.41;5094842;28;20206;-76
2021/10/17 05:19:02;;;;;;;95.47;26.03;;;;;;;-145.69;100.00;72604.44;5094642;28;20198;-76
2021/10/17 05:21:30;;;;;;;99.27;26.70;;;;;;;-145.69;100.00;72610.44;5094532;28;20198;-76
2021/10/17 05:23:57;;;;;;;99.20;29.33;;;;;;;-145.69;100.00;72596.50;5094644;28;20204;-77
2021/10/17 05:26:23;;;;;;;99.03;26.90;;;;;;;-145.69;100.00;72600.47;5094320;28;20684;-76
2021/10/17 05:28:50;;;;;;;100.27;26.97;;;;;;;-145.69;100.00;72606.44;5094230;28;20232;-76
2021/10/17 05:31:17;;;;;;;95.33;25.93;;;;;;;-145.69;100.00;72624.34;5094370;28;20564;-76
2021/10/17 05:33:44;;;;;;;93.23;26.13;;;;;;;-145.69;100.00;72632.31;5094236;28;20233;-77
2021/10/17 05:36:11;;;;;;;90.37;25.73;;;;;;;-145.69;100.00;72634.31;5094287;28;20277;-76
2021/10/17 05:38:39;;;;;;;113.53;27.27;;;;;;;-145.69;100.00;72624.34;5094581;28;20198;-76
2021/10/17 05:41:05;;;;;;;82.90;24.57;;;;;;;-145.69;100.00;72646.25;5094054;28;20248;-76
2021/10/17 05:43:33;;;;;;;105.90;25.40;;;;;;;-145.69;100.00;72648.25;5093975;28;20206;-77
2021/10/17 05:45:59;;;;;;;92.63;23.83;;;;;;;-145.69;100.00;72658.19;5093991;28;20599;-76
2021/10/17 05:48:26;;;;;;;82.57;23.13;;;;;;;-145.69;100.00;72668.16;5093766;28;20708;-77
2021/10/17 05:50:52;;;;;;;94.80;25.53;;;;;;;-145.69;100.00;72654.22;5093953;28;20194;-76
2021/10/17 05:53:19;;;;;;;106.63;26.97;;;;;;;-145.69;100.00;72642.28;5093895;28;20548;-77
2021/10/17 05:55:46;;;;;;;115.70;28.87;;;;;;;-145.69;100.00;72618.38;5093592;28;20716;-76
2021/10/17 05:58:13;;;;;;;114.70;28.37;;;;;;;-145.69;100.00;72640.28;5093688;28;20672;-77
2021/10/17 06:00:39;;;;;;;105.73;28.63;;;;;;;-145.69;100.00;72634.31;5093847;28;20198;-76
2021/10/17 06:03:07;;;;;;;130.33;28.57;;;;;;;-145.69;100.00;72626.34;5093726;28;20206;-77
2021/10/17 06:05:33;;;;;;;134.90;30.67;;;;;;;-145.69;100.00;72618.38;5093678;28;20226;-76
2021/10/17 06:08:00;;;;;;;142.33;32.13;;;;;;;-145.69;100.00;72596.50;5093446;28;20221;-77
2021/10/17 06:10:27;;;;;;;135.23;30.50;;;;;;;-145.69;100.00;72608.44;5093464;28;20247;-76
2021/10/17 06:12:55;;;;;;;119.50;31.13;;;;;;;-145.69;100.00;72600.47;5093704;28;20233;-76
2021/10/17 06:15:21;;;;;;;120.77;31.67;;;;;;;-145.69;100.00;72604.44;5093598;28;20269;-76
2021/10/17 06:17:48;;;;;;;123.60;32.47;;;;;;;-145.69;100.00;72580.56;5093353;28;20694;-77
2021/10/17 06:20:14;;;;;;;121.87;29.53;;;;;;;-145.69;100.00;72590.53;5093337;28;20197;-76
2021/10/17 06:22:41;;;;;;;129.30;32.57;;;;;;;-145.69;100.00;72576.59;5093248;28;20202;-77
2021/10/17 06:25:09;;;;;;;123.00;31.70;;;;;;;-145.69;100.00;72584.56;5093571;28;20215;-76
2021/10/17 06:27:35;;;;;;;120.03;30.73;;;;;;;-145.69;100.00;72586.53;5093327;28;20225;-77
2021/10/17 06:30:03;;;;;;;129.90;32.33;;;;;;;-145.69;100.00;72596.50;5093153;28;20744;-76
2021/10/17 06:32:30;;;;;;;131.07;30.20;;;;;;;-145.69;100.00;72582.56;5093320;28;20201;-76
2021/10/17 06:34:56;;;;;;;140.43;32.63;;;;;;;-145.69;100.00;72568.63;5093098;28;20236;-76
2021/10/17 06:37:23;;;;;;;133.53;30.77;;;;;;;-145.69;100.00;72564.66;5093093;28;20202;-76
2021/10/17 06:39:49;;;;;;;145.00;30.63;;;;;;;-145.69;100.00;72560.66;5093501;28;20255;-76
2021/10/17 06:42:16;;;;;;;129.57;31.47;;;;;;;-145.69;100.00;72560.66;5092859;28;20683;-76
2021/10/17 06:44:42;;;;;;;117.30;30.40;;;;;;;-145.69;100.00;72556.69;5093159;28;20209;-76
2021/10/17 06:47:10;;;;;;;124.93;30.43;;;;;;;-145.69;100.00;72556.69;5093166;28;20202;-76
2021/10/17 06:49:37;;;;;;;122.33;30.00;;;;;;;-145.69;100.00;72556.69;5092839;28;20236;-76
2021/10/17 06:52:04;;;;;;;130.87;29.57;;;;;;;-145.69;100.00;72542.75;5092844;28;20198;-76
2021/10/17 06:54:30;;;;;;;123.90;29.40;;;;;;;-145.69;100.00;72548.72;5092949;28;20676;-76
2021/10/17 06:56:57;;;;;;;126.30;31.80;;;;;;;-145.69;100.00;72528.81;5093000;28;20231;-76
2021/10/17 06:59:23;;;;;;;134.40;32.50;;;;;;;-145.69;100.00;72526.81;5093043;28;20202;-76
2021/10/17 07:01:50;;;;;;;144.57;33.33;;;;;;;-145.69;100.00;72498.97;5092900;28;20243;-76
2021/10/17 07:04:17;;;;;;;115.50;31.03;;;;;;;-145.69;100.00;72504.94;5092920;28;20210;-77
2021/10/17 07:06:44;;;;;;;130.37;30.87;;;;;;;-145.69;100.00;72500.94;5092816;28;20671;-77
2021/10/17 07:09:11;;;;;;;124.97;31.97;;;;;;;-145.69;100.00;72489.00;5093226;28;20261;-77
2021/10/17 07:11:38;;;;;;;120.00;29.53;;;;;;;-145.69;100.00;72494.97;5093021;28;20244;-76
2021/10/17 07:14:04;;;;;;;108.63;28.70;;;;;;;-145.69;100.00;72475.06;5089406;28;20225;-76
2021/10/17 07:16:31;;;;;;;133.37;32.27;;;;;;;-145.69;100.00;72457.16;5092791;28;20244;-76
2021/10/17 07:18:58;;;;;;;130.87;31.90;;;;;;;-145.69;100.00;72453.19;5092720;28;20656;-76
2021/10/17 07:21:25;;;;;;;106.40;28.70;;;;;;;-145.69;100.00;72455.16;5092714;28;20205;-77
2021/10/17 07:23:52;;;;;;;116.40;29.57;;;;;;;-145.69;100.00;72451.19;5092697;28;20652;-76
2021/10/17 07:26:18;;;;;;;94.83;26.80;;;;;;;-145.69;100.00;72451.19;5092843;28;20206;-76
2021/10/17 07:28:45;;;;;;;70.27;22.63;;;;;;;-145.69;100.00;72443.22;5092693;28;20248;-76
2021/10/17 07:31:11;;;;;;;67.67;20.90;;;;;;;-145.69;100.00;72449.19;5092617;28;20198;-77
2021/10/17 07:33:38;;;;;;;67.27;22.10;;;;;;;-145.69;100.00;72441.25;5092509;28;20230;-77
2021/10/17 07:36:06;;;;;;;69.70;22.40;;;;;;;-145.69;100.00;72433.28;5092734;28;20240;-77
2021/10/17 07:38:34;;;;;;;70.03;22.67;;;;;;;-145.69;100.00;72457.16;5092766;28;20209;-76
2021/10/17 07:41:01;;;;;;;60.30;21.73;;;;;;;-145.69;100.00;72461.13;5092637;28;20263;-76
2021/10/17 07:43:27;;;;;;;59.77;21.33;;;;;;;-145.69;100.00;72445.22;5092559;28;20202;-76
2021/10/17 07:45:53;;;;;;;61.70;23.33;;;;;;;-145.69;100.00;72447.22;5092614;28;20603;-77
2021/10/17 07:48:20;;;;;;;64.97;22.07;;;;;;;-145.69;100.00;72449.19;5094369;28;20658;-77
2021/10/17 07:50:46;;;;;;;64.63;24.40;;;;;;;-145.69;100.00;72453.19;5092809;28;20209;-77
2021/10/17 07:53:13;;;;;;;64.23;24.27;;;;;;;-145.69;100.00;72445.22;5092634;28;20267;-77
2021/10/17 07:55:41;;;;;;;67.60;25.03;;;;;;;-145.69;100.00;72425.31;5094936;28;20652;-77
2021/10/17 07:58:08;;;;;;;64.63;24.17;;;;;;;-145.69;100.00;72417.34;5096030;28;20552;-77
2021/10/17 08:00:35;;;;;;;61.70;23.67;;;;;;;-145.69;100.00;72417.34;5096311;28;20236;-77
2021/10/17 08:03:01;;;;;;;59.73;21.50;;;;;;;-145.69;100.00;72411.38;5096046;28;20615;-77
2021/10/17 08:05:27;;;;;;;53.07;22.77;;;;;;;-145.69;100.00;72409.38;5096377;28;20198;-77
2021/10/17 08:07:54;;;;;;;45.97;20.30;;;;;;;-145.69;100.00;72393.47;5096151;28;20256;-77
2021/10/17 08:10:21;;;;;;;47.70;20.13;;;;;;;-145.69;100.00;72395.47;5096264;28;20210;-77
2021/10/17 08:12:49;;;;;;;46.33;20.27;;;;;;;-145.69;100.00;72393.47;5095947;28;20202;-77
2021/10/17 08:15:16;;;;;;;55.50;22.00;;;;;;;-145.69;100.00;72381.53;5095801;28;20194;-77
2021/10/17 08:17:42;;;;;;;47.97;20.27;;;;;;;-145.69;100.00;72385.50;5095958;28;20259;-77
2021/10/17 08:20:10;;;;;;;52.03;20.70;;;;;;;-145.69;100.00;72369.59;5095964;28;20198;-77
2021/10/17 08:22:36;;;;;;;54.37;20.63;;;;;;;-145.69;100.00;72357.66;5095934;28;20198;-77
2021/10/17 08:25:04;;;;;;;49.30;20.87;;;;;;;-145.69;100.00;72331.78;5095836;28;20208;-77
2021/10/17 08:27:31;;;;;;;49.20;19.73;;;;;;;-145.69;100.00;72317.84;5095738;28;20202;-77
2021/10/17 08:29:59;;;;;;;40.93;18.23;;;;;;;-145.69;100.00;72315.84;5095453;28;20256;-77
2021/10/17 08:32:25;;;;;;;47.57;19.17;;;;;;;-145.69;100.00;72289.97;5095751;28;20209;-77
2021/10/17 08:34:52;;;;;;;44.37;19.93;;;;;;;-145.69;100.00;72282.00;5095488;28;20237;-77
2021/10/17 08:37:19;;;;;;;44.67;19.40;;;;;;;-145.69;100.00;72268.06;5095566;28;20205;-77
2021/10/17 08:39:45;;;;;;;45.27;18.60;;;;;;;-145.69;100.00;72254.16;5095467;28;20243;-76
2021/10/17 08:42:15;;;;;;;43.73;18.33;;;;;;;-145.69;100.00;72246.19;5095296;28;20247;-77
2021/10/17 08:44:42;;;;;;;36.67;16.57;;;;;;;-145.69;100.00;72234.25;5095231;28;20206;-77
2021/10/17 08:47:10;;;;;;;32.13;16.10;;;;;;;-145.69;100.00;72218.31;5095437;28;20198;-77
2021/10/17 08:49:37;;;;;;;33.80;16.67;;;;;;;-145.69;100.00;72210.38;5094929;28;20225;-77
2021/10/17 08:52:09;;;;;;;35.50;16.00;;;;;;;-145.69;100.00;72206.38;5094952;28;20713;-77
2021/10/17 08:54:37;;;;;;;35.93;17.80;;;;;;;-145.69;100.00;72206.38;5095170;28;20202;-77
2021/10/17 08:57:04;;;;;;;41.97;18.53;;;;;;;-145.69;100.00;72198.41;5095056;28;20202;-77
2021/10/17 08:59:30;;;;;;;43.70;18.57;;;;;;;-145.69;100.00;72194.44;5095027;28;20467;-77
2021/10/17 09:01:57;;;;;;;42.90;19.13;;;;;;;-145.69;100.00;72170.56;5094822;28;20201;-77
2021/10/17 09:04:29;;;;;;;48.83;20.80;;;;;;;-145.69;100.00;72158.63;5091422;28;20194;-77
2021/10/17 09:06:55;;;;;;;46.17;20.80;;;;;;;-145.69;100.00;72140.69;5094567;28;20198;-77
2021/10/17 09:09:22;;;;;;;51.73;22.67;;;;;;;-145.69;100.00;72126.78;5094733;28;20229;-77
2021/10/17 09:11:50;;;;;;;51.80;22.50;;;;;;;-145.69;100.00;72108.84;5094645;28;20277;-77
2021/10/17 09:14:19;;;;;;;48.70;21.27;;;;;;;-145.69;100.00;72084.97;5094518;28;20680;-77
2021/10/17 09:16:48;;;;;;;52.20;23.90;;;;;;;-145.69;100.00;72071.03;5094562;28;20198;-78
2021/10/17 09:19:17;;;;;;;51.23;21.57;;;;;;;-145.69;100.00;72047.16;5094590;28;20201;-77
2021/10/17 09:22:00;;;;;;;51.83;23.03;;;;;;;-145.69;100.00;72021.28;5094425;28;20267;-77
2021/10/17 09:24:30;;;;;;;44.20;20.63;;;;;;;-145.69;100.00;71951.63;5094322;28;20725;-77
2021/10/17 09:27:09;;;;;;;41.23;20.13;;;;;;;-145.69;100.00;71909.84;5094259;28;20664;-77
2021/10/17 09:29:36;;;;;;;39.27;18.40;;;;;;;-145.69;100.00;71887.94;5094379;28;20226;-77
2021/10/17 09:32:09;;;;;;;36.47;18.83;;;;;;;-145.69;100.00;71887.94;5094289;28;20260;-77
2021/10/17 09:34:36;;;;;;;37.23;18.33;;;;;;;-145.69;100.00;71862.06;5093973;28;20233;-77
2021/10/17 09:37:12;;;;;;;33.47;17.07;;;;;;;-145.69;100.00;71852.13;5094297;28;20201;-77
2021/10/17 09:39:41;;;;;;;36.50;17.30;;;;;;;-145.69;100.00;71852.13;5094298;28;20560;-77
2021/10/17 09:42:08;;;;;;;31.77;16.50;;;;;;;-145.69;100.00;71854.13;5094244;28;20198;-77
2021/10/17 09:44:39;;;;;;;34.23;16.53;;;;;;;-145.69;100.00;71832.22;5094330;28;20201;-77
2021/10/17 09:47:07;;;;;;;32.30;16.67;;;;;;;-145.69;100.00;71830.25;5093819;28;20656;-77
2021/10/17 09:49:34;;;;;;;31.17;16.57;;;;;;;-145.69;100.00;71822.28;5093867;28;20700;-77
2021/10/17 09:52:15;;;;;;;33.10;16.47;;;;;;;-145.69;100.00;71804.38;5093994;28;20205;-77
2021/10/17 09:54:44;;;;;;;30.90;15.27;;;;;;;-145.69;100.00;71788.44;5093948;28;20678;-77
2021/10/17 09:57:10;;;;;;;32.83;15.77;;;;;;;-145.69;100.00;71810.34;5093756;28;20255;-78
2021/10/17 09:59:37;;;;;;;27.17;14.43;;;;;;;-145.69;98.82;71800.38;5093883;28;20208;-77
2021/10/17 10:02:05;;;;;;;29.40;15.40;;;;;;;-145.69;100.00;71792.44;5093761;28;20259;-78
2021/10/17 10:04:31;;;;;;;33.57;15.70;;;;;;;-145.69;100.00;71792.44;5093809;28;20198;-78
2021/10/17 10:06:59;;;;;;;31.47;15.80;;;;;;;-145.69;100.00;71782.47;5093739;28;20210;-78
2021/10/17 10:09:31;;;;;;;26.63;13.60;;;;;;;-145.69;95.15;71798.41;5093668;28;20230;-77
2021/10/17 10:11:58;;;;;;;33.50;15.63;;;;;;;-145.69;97.49;71804.38;5093675;28;20205;-77
2021/10/17 10:14:25;;;;;;;26.53;14.07;;;;;;;-145.69;98.43;71800.38;5093933;28;20194;-77
2021/10/17 10:16:55;;;;;;;28.67;14.20;;;;;;;-145.69;97.90;71782.47;5093073;28;20228;-77
2021/10/17 10:19:22;;;;;;;23.53;13.27;;;;;;;-145.69;99.70;71774.50;5093331;28;20209;-77
2021/10/17 10:21:49;;;;;;;26.90;13.70;;;;;;;-145.69;97.49;71782.47;5093427;28;20209;-77
2021/10/17 10:24:18;;;;;;;25.93;14.00;;;;;;;-145.69;100.00;71790.44;5093366;28;20675;-77
2021/10/17 10:26:52;;;;;;;23.63;13.30;;;;;;;-145.69;100.00;71816.31;5093415;28;20202;-77
2021/10/17 10:29:24;;;;;;;25.63;13.27;;;;;;;-145.69;100.00;71816.31;5093642;28;20222;-77
2021/10/17 10:31:52;;;;;;;27.10;13.73;;;;;;;-145.69;100.00;71804.38;5093367;28;20516;-77
2021/10/17 10:35:03;;;;;;;28.03;13.37;;;;;;;-145.69;100.00;71788.44;5093136;28;20257;-77
2021/10/17 10:37:32;;;;;;;27.47;14.00;;;;;;;-145.69;100.00;71768.53;5093258;28;20220;-77
2021/10/17 10:40:12;;;;;;;27.03;14.17;;;;;;;-145.69;100.00;71748.66;5093333;28;20297;-77
2021/10/17 10:42:41;;;;;;;27.00;14.10;;;;;;;-145.69;100.00;71748.66;5093078;28;20683;-77
2021/10/17 10:45:23;;;;;;;26.20;13.50;;;;;;;-145.69;99.71;71750.63;5093338;28;20202;-78
2021/10/17 10:48:10;;;;;;;24.43;13.13;;;;;;;-145.69;99.52;71764.56;5093360;28;20255;-77
2021/10/17 10:50:38;;;;;;;26.13;13.60;;;;;;;-145.69;100.00;71760.59;5092745;28;20253;-78
2021/10/17 10:53:05;;;;;;;26.13;13.13;;;;;;;-145.69;99.95;71748.66;5093167;28;20198;-78